UAL2008 KORD-KMCO
Flight info
| Callsign | UAL2008 |
|---|---|
| Flight time | 2h 15m |
| Altitude | 35000 |
| Route | DCT CMSKY DCT CARYN DCT CYBIL DCT PXV DCT HITMN DCT DEEDA GRNCH5 |
| Aircraft | B739/M-SDE2E3FGHIRWXY/LB1 |
Departure
| Time | 2026-05-06 14:51 |
|---|---|
| Airport | Chicago O'Hare International Airport (KORD) |
Arrival
| Time | 2026-05-06 17:06 |
|---|---|
| Airport | Orlando International Airport (KMCO) |
| Time | Latitude | Longitude | Altitude | Speed | Heading |
|---|---|---|---|---|---|
| 2026-05-06 14:08 | 41.98125 | -87.90923 | 668 ft | 0 kts | 230° |
| 2026-05-06 14:35 | 41.98136 | -87.90905 | 667 ft | 4 kts | 235° |
| 2026-05-06 14:35 | 41.98147 | -87.90874 | 668 ft | 4 kts | 267° |
| 2026-05-06 14:35 | 41.98145 | -87.90855 | 668 ft | 0 kts | 296° |
| 2026-05-06 14:39 | 41.98150 | -87.90862 | 668 ft | 2 kts | 316° |
| 2026-05-06 14:39 | 41.98169 | -87.90865 | 668 ft | 6 kts | 3° |
| 2026-05-06 14:40 | 41.98230 | -87.90864 | 668 ft | 11 kts | 5° |
| 2026-05-06 14:40 | 41.98279 | -87.90773 | 667 ft | 14 kts | 74° |
| 2026-05-06 14:40 | 41.98288 | -87.90635 | 667 ft | 16 kts | 90° |
| 2026-05-06 14:40 | 41.98288 | -87.90483 | 667 ft | 17 kts | 90° |
| 2026-05-06 14:41 | 41.98288 | -87.90335 | 668 ft | 16 kts | 90° |
| 2026-05-06 14:41 | 41.98288 | -87.90190 | 668 ft | 15 kts | 90° |
| 2026-05-06 14:41 | 41.98288 | -87.90052 | 668 ft | 14 kts | 90° |
| 2026-05-06 14:41 | 41.98289 | -87.89922 | 669 ft | 14 kts | 90° |
| 2026-05-06 14:42 | 41.98289 | -87.89789 | 669 ft | 15 kts | 90° |
| 2026-05-06 14:42 | 41.98288 | -87.89642 | 669 ft | 17 kts | 90° |
| 2026-05-06 14:42 | 41.98239 | -87.89510 | 668 ft | 16 kts | 136° |
| 2026-05-06 14:42 | 41.98162 | -87.89407 | 668 ft | 16 kts | 135° |
| 2026-05-06 14:43 | 41.98084 | -87.89326 | 668 ft | 12 kts | 176° |
| 2026-05-06 14:43 | 41.98022 | -87.89393 | 668 ft | 13 kts | 230° |
| 2026-05-06 14:43 | 41.97959 | -87.89491 | 667 ft | 15 kts | 222° |
| 2026-05-06 14:43 | 41.97847 | -87.89526 | 668 ft | 18 kts | 180° |
| 2026-05-06 14:44 | 41.97716 | -87.89525 | 668 ft | 20 kts | 180° |
| 2026-05-06 14:44 | 41.97578 | -87.89525 | 668 ft | 20 kts | 180° |
| 2026-05-06 14:44 | 41.97444 | -87.89531 | 668 ft | 19 kts | 190° |
| 2026-05-06 14:45 | 41.97265 | -87.89577 | 668 ft | 11 kts | 146° |
| 2026-05-06 14:45 | 41.97206 | -87.89510 | 668 ft | 11 kts | 121° |
| 2026-05-06 14:45 | 41.97194 | -87.89403 | 668 ft | 12 kts | 90° |
| 2026-05-06 14:45 | 41.97194 | -87.89285 | 668 ft | 13 kts | 90° |
| 2026-05-06 14:46 | 41.97195 | -87.89159 | 668 ft | 14 kts | 90° |
| 2026-05-06 14:46 | 41.97195 | -87.89031 | 668 ft | 13 kts | 89° |
| 2026-05-06 14:46 | 41.97196 | -87.88909 | 668 ft | 13 kts | 90° |
| 2026-05-06 14:46 | 41.97195 | -87.88790 | 668 ft | 12 kts | 90° |
| 2026-05-06 14:47 | 41.97195 | -87.88675 | 668 ft | 12 kts | 89° |
| 2026-05-06 14:47 | 41.97196 | -87.88563 | 668 ft | 12 kts | 89° |
| 2026-05-06 14:47 | 41.97196 | -87.88453 | 668 ft | 12 kts | 90° |
| 2026-05-06 14:47 | 41.97196 | -87.88345 | 668 ft | 12 kts | 90° |
| 2026-05-06 14:48 | 41.97196 | -87.88226 | 668 ft | 14 kts | 90° |
| 2026-05-06 14:48 | 41.97196 | -87.88095 | 668 ft | 11 kts | 91° |
| 2026-05-06 14:48 | 41.97142 | -87.88034 | 668 ft | 11 kts | 178° |
| 2026-05-06 14:48 | 41.97065 | -87.88035 | 669 ft | 11 kts | 179° |
| 2026-05-06 14:49 | 41.96994 | -87.88020 | 670 ft | 9 kts | 151° |
| 2026-05-06 14:49 | 41.96949 | -87.88027 | 671 ft | 7 kts | 226° |
| 2026-05-06 14:49 | 41.96942 | -87.88036 | 671 ft | 0 kts | 223° |
| 2026-05-06 14:50 | 41.96937 | -87.88043 | 669 ft | 5 kts | 222° |
| 2026-05-06 14:50 | 41.96805 | -87.88201 | 669 ft | 62 kts | 221° |
| 2026-05-06 14:50 | 41.96280 | -87.88820 | 670 ft | 132 kts | 221° |
| 2026-05-06 14:50 | 41.95468 | -87.89787 | 825 ft | 168 kts | 223° |
| 2026-05-06 14:51 | 41.94666 | -87.90774 | 1415 ft | 176 kts | 223° |
| 2026-05-06 14:51 | 41.93718 | -87.91901 | 1961 ft | 194 kts | 223° |
| 2026-05-06 14:51 | 41.92631 | -87.93154 | 2199 ft | 218 kts | 214° |
| 2026-05-06 14:51 | 41.91123 | -87.93642 | 2557 ft | 235 kts | 176° |
| 2026-05-06 14:52 | 41.89466 | -87.93381 | 3080 ft | 243 kts | 173° |
| 2026-05-06 14:52 | 41.87718 | -87.93073 | 3336 ft | 262 kts | 174° |
| 2026-05-06 14:52 | 41.85882 | -87.92772 | 3999 ft | 266 kts | 175° |
| 2026-05-06 14:52 | 41.84047 | -87.92503 | 4856 ft | 267 kts | 177° |
| 2026-05-06 14:53 | 41.82185 | -87.92258 | 5606 ft | 270 kts | 177° |
| 2026-05-06 14:53 | 41.80301 | -87.92017 | 6441 ft | 273 kts | 178° |
| 2026-05-06 14:53 | 41.78405 | -87.91775 | 7180 ft | 275 kts | 178° |
| 2026-05-06 14:53 | 41.76477 | -87.91547 | 7854 ft | 281 kts | 179° |
| 2026-05-06 14:54 | 41.74521 | -87.91319 | 8593 ft | 284 kts | 179° |
| 2026-05-06 14:54 | 41.72534 | -87.91096 | 9290 ft | 287 kts | 180° |
| 2026-05-06 14:54 | 41.70554 | -87.90877 | 9929 ft | 291 kts | 180° |
| 2026-05-06 14:54 | 41.68486 | -87.90652 | 10369 ft | 303 kts | 180° |
| 2026-05-06 14:55 | 41.66340 | -87.90423 | 10584 ft | 320 kts | 180° |
| 2026-05-06 14:55 | 41.64094 | -87.90180 | 11134 ft | 325 kts | 180° |
| 2026-05-06 14:55 | 41.61844 | -87.89931 | 11863 ft | 324 kts | 181° |
| 2026-05-06 14:55 | 41.59566 | -87.89680 | 12573 ft | 325 kts | 181° |
| 2026-05-06 14:56 | 41.57341 | -87.89436 | 13227 ft | 326 kts | 182° |
| 2026-05-06 14:56 | 41.55070 | -87.89190 | 13891 ft | 328 kts | 182° |
| 2026-05-06 14:56 | 41.52779 | -87.88943 | 14405 ft | 333 kts | 182° |
| 2026-05-06 14:56 | 41.50453 | -87.88692 | 14897 ft | 337 kts | 182° |
| 2026-05-06 14:57 | 41.48103 | -87.88437 | 15444 ft | 340 kts | 183° |
| 2026-05-06 14:57 | 41.45738 | -87.88182 | 16005 ft | 342 kts | 183° |
| 2026-05-06 14:57 | 41.43358 | -87.87925 | 16563 ft | 345 kts | 183° |
| 2026-05-06 14:57 | 41.40959 | -87.87714 | 17096 ft | 344 kts | 187° |
| 2026-05-06 14:58 | 41.38575 | -87.87864 | 17623 ft | 342 kts | 192° |
| 2026-05-06 14:58 | 41.36194 | -87.88131 | 18175 ft | 344 kts | 193° |
| 2026-05-06 14:58 | 41.33792 | -87.88410 | 18663 ft | 347 kts | 193° |
| 2026-05-06 14:58 | 41.31383 | -87.88670 | 19159 ft | 348 kts | 193° |
| 2026-05-06 14:59 | 41.28967 | -87.88914 | 19652 ft | 349 kts | 193° |
| 2026-05-06 14:59 | 41.26535 | -87.89154 | 20124 ft | 351 kts | 193° |
| 2026-05-06 14:59 | 41.24087 | -87.89320 | 20588 ft | 356 kts | 189° |
| 2026-05-06 14:59 | 41.21616 | -87.89283 | 21047 ft | 360 kts | 188° |
| 2026-05-06 15:00 | 41.19077 | -87.89195 | 21542 ft | 361 kts | 188° |
| 2026-05-06 15:00 | 41.16595 | -87.89094 | 22088 ft | 360 kts | 188° |
| 2026-05-06 15:00 | 41.14091 | -87.88994 | 22561 ft | 362 kts | 188° |
| 2026-05-06 15:00 | 41.11559 | -87.88902 | 22985 ft | 364 kts | 188° |
| 2026-05-06 15:01 | 41.09018 | -87.88814 | 23429 ft | 366 kts | 189° |
| 2026-05-06 15:01 | 41.06463 | -87.88730 | 23813 ft | 368 kts | 189° |
| 2026-05-06 15:01 | 41.03905 | -87.88647 | 24185 ft | 370 kts | 189° |
| 2026-05-06 15:01 | 41.01324 | -87.88564 | 24537 ft | 372 kts | 189° |
| 2026-05-06 15:02 | 40.98727 | -87.88483 | 24877 ft | 374 kts | 190° |
| 2026-05-06 15:02 | 40.96120 | -87.88401 | 25226 ft | 376 kts | 190° |
| 2026-05-06 15:02 | 40.93504 | -87.88320 | 25569 ft | 377 kts | 191° |
| 2026-05-06 15:02 | 40.90872 | -87.88238 | 25910 ft | 379 kts | 191° |
| 2026-05-06 15:03 | 40.88233 | -87.88155 | 26266 ft | 380 kts | 191° |
| 2026-05-06 15:03 | 40.85579 | -87.88072 | 26593 ft | 382 kts | 192° |
| 2026-05-06 15:03 | 40.82915 | -87.87990 | 26912 ft | 384 kts | 192° |
| 2026-05-06 15:03 | 40.80239 | -87.87907 | 27236 ft | 386 kts | 192° |
| 2026-05-06 15:04 | 40.77544 | -87.87823 | 27548 ft | 388 kts | 193° |
| 2026-05-06 15:04 | 40.74843 | -87.87739 | 27862 ft | 389 kts | 193° |
| 2026-05-06 15:04 | 40.72123 | -87.87655 | 28172 ft | 391 kts | 193° |
| 2026-05-06 15:04 | 40.69399 | -87.87571 | 28469 ft | 393 kts | 194° |
| 2026-05-06 15:05 | 40.66660 | -87.87486 | 28770 ft | 395 kts | 194° |
| 2026-05-06 15:05 | 40.63910 | -87.87400 | 29070 ft | 396 kts | 194° |
| 2026-05-06 15:05 | 40.61150 | -87.87315 | 29368 ft | 398 kts | 195° |
| 2026-05-06 15:05 | 40.58378 | -87.87229 | 29651 ft | 399 kts | 195° |
| 2026-05-06 15:06 | 40.55588 | -87.87143 | 29926 ft | 401 kts | 195° |
| 2026-05-06 15:06 | 40.52796 | -87.87056 | 30204 ft | 402 kts | 195° |
| 2026-05-06 15:06 | 40.50940 | -87.86998 | 30375 ft | 403 kts | 195° |
| 2026-05-06 15:06 | 40.48140 | -87.86909 | 30642 ft | 403 kts | 196° |
| 2026-05-06 15:07 | 40.45337 | -87.86822 | 30873 ft | 404 kts | 196° |
| 2026-05-06 15:07 | 40.42518 | -87.86736 | 31093 ft | 405 kts | 196° |
| 2026-05-06 15:07 | 40.38772 | -87.86620 | 31396 ft | 407 kts | 196° |
| 2026-05-06 15:07 | 40.36864 | -87.86561 | 31545 ft | 408 kts | 196° |
| 2026-05-06 15:08 | 40.34018 | -87.86474 | 31756 ft | 409 kts | 196° |
| 2026-05-06 15:08 | 40.31172 | -87.86386 | 31980 ft | 410 kts | 196° |
| 2026-05-06 15:08 | 40.28311 | -87.86276 | 32190 ft | 412 kts | 195° |
| 2026-05-06 15:08 | 40.25440 | -87.86152 | 32388 ft | 413 kts | 195° |
| 2026-05-06 15:09 | 40.22558 | -87.86021 | 32583 ft | 415 kts | 195° |
| 2026-05-06 15:09 | 40.19670 | -87.85889 | 32778 ft | 416 kts | 195° |
| 2026-05-06 15:09 | 40.16779 | -87.85757 | 32970 ft | 417 kts | 195° |
| 2026-05-06 15:09 | 40.13877 | -87.85626 | 33166 ft | 418 kts | 195° |
| 2026-05-06 15:10 | 40.10977 | -87.85496 | 33382 ft | 418 kts | 195° |
| 2026-05-06 15:10 | 40.08073 | -87.85364 | 33664 ft | 416 kts | 196° |
| 2026-05-06 15:10 | 40.05184 | -87.85231 | 33952 ft | 414 kts | 196° |
| 2026-05-06 15:10 | 40.02310 | -87.85102 | 34155 ft | 413 kts | 196° |
| 2026-05-06 15:11 | 39.99428 | -87.84977 | 34297 ft | 414 kts | 196° |
| 2026-05-06 15:11 | 39.96546 | -87.84853 | 34436 ft | 415 kts | 196° |
| 2026-05-06 15:11 | 39.93665 | -87.84729 | 34617 ft | 414 kts | 196° |
| 2026-05-06 15:11 | 39.90784 | -87.84603 | 34797 ft | 414 kts | 196° |
| 2026-05-06 15:12 | 39.87905 | -87.84477 | 34948 ft | 414 kts | 196° |
| 2026-05-06 15:12 | 39.82140 | -87.84229 | 35021 ft | 416 kts | 196° |
| 2026-05-06 15:13 | 39.76323 | -87.83983 | 35029 ft | 420 kts | 195° |
| 2026-05-06 15:13 | 39.70499 | -87.83732 | 35034 ft | 423 kts | 195° |
| 2026-05-06 15:14 | 39.64595 | -87.83474 | 35031 ft | 425 kts | 195° |
| 2026-05-06 15:14 | 39.58686 | -87.83213 | 35018 ft | 425 kts | 195° |
| 2026-05-06 15:15 | 39.52788 | -87.82953 | 35007 ft | 423 kts | 195° |
| 2026-05-06 15:15 | 39.46919 | -87.82695 | 35012 ft | 421 kts | 195° |
| 2026-05-06 15:16 | 39.41088 | -87.82442 | 35009 ft | 418 kts | 195° |
| 2026-05-06 15:16 | 39.35288 | -87.82193 | 35005 ft | 416 kts | 195° |
| 2026-05-06 15:17 | 39.29518 | -87.81946 | 35009 ft | 414 kts | 196° |
| 2026-05-06 15:17 | 39.23768 | -87.81702 | 35015 ft | 413 kts | 196° |
| 2026-05-06 15:18 | 39.18025 | -87.81459 | 35017 ft | 413 kts | 195° |
| 2026-05-06 15:18 | 39.12273 | -87.81216 | 35024 ft | 414 kts | 195° |
| 2026-05-06 15:19 | 39.06503 | -87.80973 | 35035 ft | 416 kts | 195° |
| 2026-05-06 15:19 | 39.00704 | -87.80728 | 35029 ft | 418 kts | 195° |
| 2026-05-06 15:20 | 38.94882 | -87.80481 | 35028 ft | 420 kts | 195° |
| 2026-05-06 15:20 | 38.89035 | -87.80231 | 35076 ft | 421 kts | 195° |
| 2026-05-06 15:21 | 38.83181 | -87.79982 | 35083 ft | 421 kts | 195° |
| 2026-05-06 15:21 | 38.77323 | -87.79731 | 35094 ft | 421 kts | 195° |
| 2026-05-06 15:22 | 38.71482 | -87.79482 | 35089 ft | 419 kts | 195° |
| 2026-05-06 15:22 | 38.65662 | -87.79236 | 35034 ft | 418 kts | 195° |
| 2026-05-06 15:23 | 38.59892 | -87.78992 | 35034 ft | 417 kts | 195° |
| 2026-05-06 15:23 | 38.54109 | -87.78749 | 35038 ft | 415 kts | 195° |
| 2026-05-06 15:24 | 38.48339 | -87.78508 | 35040 ft | 414 kts | 195° |
| 2026-05-06 15:24 | 38.42586 | -87.78267 | 35036 ft | 413 kts | 195° |
| 2026-05-06 15:25 | 38.36844 | -87.78028 | 35028 ft | 413 kts | 195° |
| 2026-05-06 15:25 | 38.31105 | -87.77790 | 35026 ft | 413 kts | 195° |
| 2026-05-06 15:26 | 38.25361 | -87.77552 | 35029 ft | 414 kts | 195° |
| 2026-05-06 15:26 | 38.19595 | -87.77314 | 35037 ft | 415 kts | 195° |
| 2026-05-06 15:27 | 38.13809 | -87.77074 | 35038 ft | 417 kts | 195° |
| 2026-05-06 15:27 | 38.07997 | -87.76832 | 35039 ft | 419 kts | 194° |
| 2026-05-06 15:28 | 38.02161 | -87.76589 | 35042 ft | 420 kts | 194° |
| 2026-05-06 15:28 | 37.96300 | -87.76331 | 35047 ft | 426 kts | 192° |
| 2026-05-06 15:28 | 37.93297 | -87.75775 | 35052 ft | 445 kts | 184° |
| 2026-05-06 15:29 | 37.90264 | -87.74685 | 35053 ft | 464 kts | 175° |
| 2026-05-06 15:29 | 37.87256 | -87.73006 | 35074 ft | 476 kts | 170° |
| 2026-05-06 15:29 | 37.84272 | -87.71159 | 35054 ft | 479 kts | 169° |
| 2026-05-06 15:30 | 37.78297 | -87.67363 | 35052 ft | 480 kts | 169° |
| 2026-05-06 15:30 | 37.72332 | -87.63618 | 35054 ft | 478 kts | 169° |
| 2026-05-06 15:31 | 37.66358 | -87.59935 | 35040 ft | 478 kts | 169° |
| 2026-05-06 15:31 | 37.60380 | -87.56279 | 35031 ft | 477 kts | 169° |
| 2026-05-06 15:32 | 37.51447 | -87.50832 | 35005 ft | 478 kts | 169° |
| 2026-05-06 15:32 | 37.45460 | -87.47186 | 35005 ft | 479 kts | 169° |
| 2026-05-06 15:33 | 37.39457 | -87.43536 | 35002 ft | 480 kts | 169° |
| 2026-05-06 15:33 | 37.33443 | -87.39885 | 35004 ft | 481 kts | 169° |
| 2026-05-06 15:34 | 37.27403 | -87.36225 | 34993 ft | 482 kts | 169° |
| 2026-05-06 15:34 | 37.21356 | -87.32568 | 34997 ft | 484 kts | 169° |
| 2026-05-06 15:35 | 37.15286 | -87.28902 | 34995 ft | 485 kts | 169° |
| 2026-05-06 15:35 | 37.09184 | -87.25223 | 34991 ft | 486 kts | 169° |
| 2026-05-06 15:36 | 37.03074 | -87.21546 | 35003 ft | 487 kts | 169° |
| 2026-05-06 15:36 | 36.96963 | -87.17874 | 34997 ft | 487 kts | 169° |
| 2026-05-06 15:37 | 36.90852 | -87.14209 | 34986 ft | 487 kts | 169° |
| 2026-05-06 15:37 | 36.84749 | -87.10555 | 34990 ft | 486 kts | 169° |
| 2026-05-06 15:38 | 36.78647 | -87.06909 | 34982 ft | 485 kts | 169° |
| 2026-05-06 15:38 | 36.72571 | -87.03284 | 34982 ft | 484 kts | 169° |
| 2026-05-06 15:39 | 36.66514 | -86.99678 | 34977 ft | 482 kts | 169° |
| 2026-05-06 15:39 | 36.60505 | -86.96107 | 34979 ft | 481 kts | 169° |
| 2026-05-06 15:40 | 36.54470 | -86.92528 | 34977 ft | 480 kts | 169° |
| 2026-05-06 15:40 | 36.48456 | -86.88966 | 34978 ft | 479 kts | 169° |
| 2026-05-06 15:41 | 36.42444 | -86.85413 | 34971 ft | 478 kts | 169° |
| 2026-05-06 15:41 | 36.36439 | -86.81869 | 34972 ft | 478 kts | 169° |
| 2026-05-06 15:42 | 36.30431 | -86.78330 | 34984 ft | 478 kts | 169° |
| 2026-05-06 15:42 | 36.24417 | -86.74793 | 34982 ft | 479 kts | 168° |
| 2026-05-06 15:43 | 36.18389 | -86.71251 | 35001 ft | 479 kts | 168° |
| 2026-05-06 15:43 | 36.12341 | -86.67848 | 34997 ft | 470 kts | 174° |
| 2026-05-06 15:44 | 36.06183 | -86.65395 | 34995 ft | 464 kts | 177° |
| 2026-05-06 15:44 | 35.99995 | -86.63110 | 35001 ft | 465 kts | 177° |
| 2026-05-06 15:45 | 35.93776 | -86.60774 | 35000 ft | 467 kts | 176° |
| 2026-05-06 15:45 | 35.87563 | -86.58393 | 34994 ft | 469 kts | 176° |
| 2026-05-06 15:46 | 35.81335 | -86.55989 | 34980 ft | 469 kts | 176° |
| 2026-05-06 15:46 | 35.75102 | -86.53585 | 34974 ft | 470 kts | 175° |
| 2026-05-06 15:47 | 35.68902 | -86.51199 | 34956 ft | 470 kts | 175° |
| 2026-05-06 15:47 | 35.62661 | -86.48803 | 34957 ft | 470 kts | 175° |
| 2026-05-06 15:48 | 35.56411 | -86.46408 | 34958 ft | 470 kts | 175° |
| 2026-05-06 15:48 | 35.50169 | -86.44021 | 34953 ft | 470 kts | 175° |
| 2026-05-06 15:49 | 35.43909 | -86.41630 | 34955 ft | 471 kts | 175° |
| 2026-05-06 15:49 | 35.37637 | -86.39240 | 34949 ft | 472 kts | 175° |
| 2026-05-06 15:50 | 35.31392 | -86.36864 | 34943 ft | 473 kts | 175° |
| 2026-05-06 15:50 | 35.25084 | -86.34467 | 34955 ft | 475 kts | 174° |
| 2026-05-06 15:51 | 35.18761 | -86.32069 | 34954 ft | 477 kts | 174° |
| 2026-05-06 15:51 | 35.12403 | -86.29661 | 34974 ft | 479 kts | 174° |
| 2026-05-06 15:52 | 35.07113 | -86.27660 | 34973 ft | 480 kts | 174° |
| 2026-05-06 15:52 | 34.99629 | -86.24833 | 34967 ft | 482 kts | 174° |
| 2026-05-06 15:53 | 34.93222 | -86.22417 | 34984 ft | 483 kts | 174° |
| 2026-05-06 15:53 | 34.86788 | -86.19997 | 34979 ft | 484 kts | 174° |
| 2026-05-06 15:54 | 34.81439 | -86.17985 | 34975 ft | 484 kts | 174° |
| 2026-05-06 15:54 | 34.74991 | -86.15565 | 34978 ft | 484 kts | 174° |
| 2026-05-06 15:55 | 34.68551 | -86.13152 | 34971 ft | 484 kts | 174° |
| 2026-05-06 15:55 | 34.62107 | -86.10741 | 34975 ft | 484 kts | 174° |
| 2026-05-06 15:56 | 34.55687 | -86.08343 | 34990 ft | 483 kts | 174° |
| 2026-05-06 15:56 | 34.49242 | -86.05943 | 34989 ft | 484 kts | 175° |
| 2026-05-06 15:57 | 34.42804 | -86.03547 | 35000 ft | 484 kts | 174° |
| 2026-05-06 15:57 | 34.36362 | -86.01153 | 34997 ft | 484 kts | 174° |
| 2026-05-06 15:58 | 34.29928 | -85.98766 | 34998 ft | 484 kts | 174° |
| 2026-05-06 15:58 | 34.23497 | -85.96383 | 34992 ft | 483 kts | 174° |
| 2026-05-06 15:59 | 34.17074 | -85.94008 | 35004 ft | 482 kts | 174° |
| 2026-05-06 15:59 | 34.10660 | -85.91640 | 34996 ft | 482 kts | 174° |
| 2026-05-06 16:00 | 34.04260 | -85.89280 | 34991 ft | 481 kts | 174° |
| 2026-05-06 16:00 | 33.97866 | -85.86928 | 35006 ft | 480 kts | 174° |
| 2026-05-06 16:01 | 33.91474 | -85.84580 | 35006 ft | 480 kts | 173° |
| 2026-05-06 16:01 | 33.85081 | -85.82236 | 35030 ft | 481 kts | 173° |
| 2026-05-06 16:02 | 33.78663 | -85.79886 | 35024 ft | 482 kts | 173° |
| 2026-05-06 16:02 | 33.72242 | -85.77538 | 35369 ft | 483 kts | 173° |
| 2026-05-06 16:03 | 33.69036 | -85.76367 | 35034 ft | 484 kts | 173° |
| 2026-05-06 16:03 | 33.65808 | -85.75189 | 35036 ft | 485 kts | 173° |
| 2026-05-06 16:03 | 33.59323 | -85.72826 | 35054 ft | 488 kts | 173° |
| 2026-05-06 16:04 | 33.52817 | -85.70459 | 35037 ft | 490 kts | 173° |
| 2026-05-06 16:04 | 33.46277 | -85.68081 | 35045 ft | 491 kts | 173° |
| 2026-05-06 16:05 | 33.39728 | -85.65704 | 35032 ft | 492 kts | 173° |
| 2026-05-06 16:05 | 33.33164 | -85.63324 | 35042 ft | 493 kts | 173° |
| 2026-05-06 16:06 | 33.26598 | -85.60949 | 35044 ft | 493 kts | 173° |
| 2026-05-06 16:06 | 33.20071 | -85.58591 | 35053 ft | 493 kts | 173° |
| 2026-05-06 16:07 | 33.13494 | -85.56220 | 35045 ft | 494 kts | 173° |
| 2026-05-06 16:07 | 33.06909 | -85.53850 | 35058 ft | 494 kts | 173° |
| 2026-05-06 16:08 | 33.00315 | -85.51480 | 35051 ft | 496 kts | 173° |
| 2026-05-06 16:08 | 32.93704 | -85.49108 | 35067 ft | 496 kts | 173° |
| 2026-05-06 16:09 | 32.87087 | -85.46736 | 35075 ft | 497 kts | 173° |
| 2026-05-06 16:09 | 32.80449 | -85.44362 | 35099 ft | 499 kts | 173° |
| 2026-05-06 16:10 | 32.73789 | -85.41983 | 35098 ft | 500 kts | 173° |
| 2026-05-06 16:10 | 32.67128 | -85.39606 | 35123 ft | 500 kts | 173° |
| 2026-05-06 16:11 | 32.60454 | -85.37230 | 35100 ft | 501 kts | 173° |
| 2026-05-06 16:11 | 32.53789 | -85.34858 | 35110 ft | 499 kts | 173° |
| 2026-05-06 16:12 | 32.47142 | -85.32498 | 35091 ft | 498 kts | 172° |
| 2026-05-06 16:12 | 32.40502 | -85.30145 | 35084 ft | 497 kts | 172° |
| 2026-05-06 16:13 | 32.33884 | -85.27803 | 35072 ft | 496 kts | 172° |
| 2026-05-06 16:13 | 32.27265 | -85.25464 | 35074 ft | 497 kts | 172° |
| 2026-05-06 16:14 | 32.20629 | -85.23124 | 35062 ft | 497 kts | 172° |
| 2026-05-06 16:14 | 32.14010 | -85.20791 | 35104 ft | 496 kts | 172° |
| 2026-05-06 16:15 | 32.07393 | -85.18463 | 35121 ft | 496 kts | 172° |
| 2026-05-06 16:15 | 32.00771 | -85.16138 | 35122 ft | 497 kts | 172° |
| 2026-05-06 16:16 | 31.94193 | -85.13831 | 35131 ft | 497 kts | 172° |
| 2026-05-06 16:16 | 31.87560 | -85.11509 | 35131 ft | 497 kts | 172° |
| 2026-05-06 16:17 | 31.80924 | -85.09188 | 35115 ft | 498 kts | 172° |
| 2026-05-06 16:17 | 31.74276 | -85.06867 | 35102 ft | 499 kts | 172° |
| 2026-05-06 16:18 | 31.67614 | -85.04543 | 35083 ft | 499 kts | 172° |
| 2026-05-06 16:18 | 31.60991 | -85.01990 | 35066 ft | 513 kts | 158° |
| 2026-05-06 16:19 | 31.58046 | -84.99536 | 35111 ft | 527 kts | 140° |
| 2026-05-06 16:19 | 31.55684 | -84.96205 | 35088 ft | 536 kts | 122° |
| 2026-05-06 16:19 | 31.54140 | -84.92227 | 35146 ft | 537 kts | 110° |
| 2026-05-06 16:19 | 31.52893 | -84.88096 | 35119 ft | 539 kts | 109° |
| 2026-05-06 16:20 | 31.50503 | -84.79766 | 35115 ft | 540 kts | 109° |
| 2026-05-06 16:20 | 31.48039 | -84.71445 | 35105 ft | 541 kts | 110° |
| 2026-05-06 16:21 | 31.45488 | -84.63137 | 35091 ft | 542 kts | 110° |
| 2026-05-06 16:21 | 31.42913 | -84.54842 | 35089 ft | 542 kts | 110° |
| 2026-05-06 16:22 | 31.40341 | -84.46553 | 35092 ft | 542 kts | 110° |
| 2026-05-06 16:22 | 31.37769 | -84.38269 | 35109 ft | 541 kts | 110° |
| 2026-05-06 16:23 | 31.35199 | -84.30007 | 35105 ft | 540 kts | 110° |
| 2026-05-06 16:23 | 31.32624 | -84.21754 | 35126 ft | 539 kts | 109° |
| 2026-05-06 16:24 | 31.30050 | -84.13522 | 35105 ft | 539 kts | 109° |
| 2026-05-06 16:24 | 31.27471 | -84.05301 | 35105 ft | 538 kts | 109° |
| 2026-05-06 16:25 | 31.24906 | -83.97155 | 35099 ft | 538 kts | 109° |
| 2026-05-06 16:25 | 31.22317 | -83.88952 | 35111 ft | 537 kts | 109° |
| 2026-05-06 16:26 | 31.19730 | -83.80769 | 35106 ft | 537 kts | 109° |
| 2026-05-06 16:26 | 31.17135 | -83.72582 | 35115 ft | 537 kts | 109° |
| 2026-05-06 16:27 | 31.14535 | -83.64399 | 35102 ft | 538 kts | 109° |
| 2026-05-06 16:27 | 31.11926 | -83.56212 | 35102 ft | 538 kts | 109° |
| 2026-05-06 16:28 | 31.09311 | -83.48023 | 35089 ft | 539 kts | 109° |
| 2026-05-06 16:28 | 31.06686 | -83.39825 | 35097 ft | 539 kts | 109° |
| 2026-05-06 16:29 | 31.04057 | -83.31635 | 35099 ft | 540 kts | 109° |
| 2026-05-06 16:29 | 31.01419 | -83.23440 | 35108 ft | 540 kts | 109° |
| 2026-05-06 16:30 | 30.99222 | -83.16629 | 35100 ft | 540 kts | 109° |
| 2026-05-06 16:30 | 30.96143 | -83.07104 | 35106 ft | 540 kts | 109° |
| 2026-05-06 16:31 | 30.93489 | -82.98918 | 35098 ft | 540 kts | 109° |
| 2026-05-06 16:31 | 30.90830 | -82.90735 | 35117 ft | 540 kts | 109° |
| 2026-05-06 16:32 | 30.89230 | -82.86775 | 35090 ft | 541 kts | 124° |
| 2026-05-06 16:32 | 30.86884 | -82.83406 | 35119 ft | 534 kts | 141° |
| 2026-05-06 16:32 | 30.81094 | -82.78097 | 35130 ft | 530 kts | 147° |
| 2026-05-06 16:33 | 30.75178 | -82.72968 | 35124 ft | 531 kts | 147° |
| 2026-05-06 16:34 | 30.66369 | -82.65126 | 35150 ft | 533 kts | 146° |
| 2026-05-06 16:34 | 30.60505 | -82.59837 | 35159 ft | 534 kts | 146° |
| 2026-05-06 16:35 | 30.54630 | -82.54551 | 35165 ft | 535 kts | 146° |
| 2026-05-06 16:35 | 30.48743 | -82.49271 | 35161 ft | 535 kts | 146° |
| 2026-05-06 16:36 | 30.42842 | -82.43990 | 35157 ft | 536 kts | 146° |
| 2026-05-06 16:36 | 30.36943 | -82.38718 | 35152 ft | 536 kts | 146° |
| 2026-05-06 16:37 | 30.31031 | -82.33442 | 35155 ft | 536 kts | 146° |
| 2026-05-06 16:37 | 30.28075 | -82.30806 | 35032 ft | 538 kts | 146° |
| 2026-05-06 16:37 | 30.25082 | -82.28142 | 34319 ft | 545 kts | 146° |
| 2026-05-06 16:37 | 30.22083 | -82.25508 | 33544 ft | 536 kts | 150° |
| 2026-05-06 16:38 | 30.18850 | -82.23520 | 32759 ft | 517 kts | 167° |
| 2026-05-06 16:38 | 30.15429 | -82.22523 | 32050 ft | 498 kts | 178° |
| 2026-05-06 16:38 | 30.12070 | -82.21917 | 31385 ft | 491 kts | 178° |
| 2026-05-06 16:38 | 30.08722 | -82.21340 | 30853 ft | 482 kts | 178° |
| 2026-05-06 16:39 | 30.05406 | -82.20749 | 30106 ft | 479 kts | 177° |
| 2026-05-06 16:39 | 30.02174 | -82.20135 | 29708 ft | 467 kts | 177° |
| 2026-05-06 16:39 | 29.99000 | -82.19512 | 29228 ft | 457 kts | 176° |
| 2026-05-06 16:39 | 29.95882 | -82.18894 | 28691 ft | 454 kts | 176° |
| 2026-05-06 16:40 | 29.92754 | -82.18279 | 28208 ft | 459 kts | 176° |
| 2026-05-06 16:40 | 29.89562 | -82.17653 | 27692 ft | 471 kts | 176° |
| 2026-05-06 16:40 | 29.86330 | -82.17012 | 27144 ft | 468 kts | 176° |
| 2026-05-06 16:40 | 29.83151 | -82.16372 | 26623 ft | 461 kts | 176° |
| 2026-05-06 16:41 | 29.80004 | -82.15739 | 26124 ft | 457 kts | 176° |
| 2026-05-06 16:41 | 29.76879 | -82.15113 | 25600 ft | 455 kts | 176° |
| 2026-05-06 16:41 | 29.73766 | -82.14492 | 25088 ft | 453 kts | 176° |
| 2026-05-06 16:41 | 29.70669 | -82.13876 | 24580 ft | 451 kts | 176° |
| 2026-05-06 16:42 | 29.68626 | -82.13470 | 24234 ft | 450 kts | 176° |
| 2026-05-06 16:42 | 29.65546 | -82.12859 | 23727 ft | 448 kts | 176° |
| 2026-05-06 16:42 | 29.62486 | -82.12252 | 23129 ft | 446 kts | 175° |
| 2026-05-06 16:42 | 29.59441 | -82.11647 | 22598 ft | 442 kts | 175° |
| 2026-05-06 16:43 | 29.56430 | -82.11050 | 22080 ft | 438 kts | 175° |
| 2026-05-06 16:43 | 29.53430 | -82.10455 | 21579 ft | 435 kts | 175° |
| 2026-05-06 16:43 | 29.50462 | -82.09867 | 21082 ft | 431 kts | 175° |
| 2026-05-06 16:43 | 29.47520 | -82.09284 | 20590 ft | 428 kts | 175° |
| 2026-05-06 16:44 | 29.44589 | -82.08704 | 20101 ft | 425 kts | 174° |
| 2026-05-06 16:44 | 29.41680 | -82.08130 | 19616 ft | 423 kts | 174° |
| 2026-05-06 16:44 | 29.38785 | -82.07559 | 19131 ft | 421 kts | 174° |
| 2026-05-06 16:44 | 29.35909 | -82.06992 | 18643 ft | 419 kts | 174° |
| 2026-05-06 16:45 | 29.33044 | -82.06427 | 18122 ft | 417 kts | 174° |
| 2026-05-06 16:45 | 29.30217 | -82.05693 | 17573 ft | 419 kts | 162° |
| 2026-05-06 16:45 | 29.27618 | -82.04192 | 17104 ft | 417 kts | 153° |
| 2026-05-06 16:45 | 29.25104 | -82.02551 | 16623 ft | 414 kts | 152° |
| 2026-05-06 16:46 | 29.22609 | -82.00920 | 16142 ft | 411 kts | 152° |
| 2026-05-06 16:46 | 29.20132 | -81.99322 | 15668 ft | 408 kts | 153° |
| 2026-05-06 16:46 | 29.17662 | -81.97751 | 15191 ft | 405 kts | 153° |
| 2026-05-06 16:46 | 29.15199 | -81.96198 | 14722 ft | 402 kts | 153° |
| 2026-05-06 16:47 | 29.12755 | -81.94663 | 14224 ft | 400 kts | 153° |
| 2026-05-06 16:47 | 29.10314 | -81.93132 | 13717 ft | 399 kts | 153° |
| 2026-05-06 16:47 | 29.07891 | -81.91613 | 13186 ft | 396 kts | 153° |
| 2026-05-06 16:47 | 29.05627 | -81.89846 | 12705 ft | 394 kts | 139° |
| 2026-05-06 16:48 | 29.03696 | -81.87690 | 12230 ft | 381 kts | 136° |
| 2026-05-06 16:48 | 29.01863 | -81.85615 | 11777 ft | 369 kts | 137° |
| 2026-05-06 16:48 | 29.00037 | -81.83616 | 11353 ft | 357 kts | 137° |
| 2026-05-06 16:48 | 28.98266 | -81.81702 | 11139 ft | 343 kts | 136° |
| 2026-05-06 16:49 | 28.96683 | -81.79674 | 10825 ft | 335 kts | 129° |
| 2026-05-06 16:49 | 28.95304 | -81.77589 | 10549 ft | 322 kts | 127° |
| 2026-05-06 16:49 | 28.94018 | -81.75585 | 10279 ft | 312 kts | 127° |
| 2026-05-06 16:49 | 28.92746 | -81.73625 | 10062 ft | 299 kts | 128° |
| 2026-05-06 16:50 | 28.91519 | -81.71772 | 9725 ft | 292 kts | 128° |
| 2026-05-06 16:50 | 28.90310 | -81.69969 | 9498 ft | 282 kts | 128° |
| 2026-05-06 16:50 | 28.89119 | -81.68201 | 9202 ft | 279 kts | 128° |
| 2026-05-06 16:50 | 28.87958 | -81.66481 | 9077 ft | 270 kts | 129° |
| 2026-05-06 16:51 | 28.86806 | -81.64777 | 8733 ft | 271 kts | 128° |
| 2026-05-06 16:51 | 28.85647 | -81.63065 | 8403 ft | 272 kts | 129° |
| 2026-05-06 16:51 | 28.84490 | -81.61354 | 8092 ft | 273 kts | 128° |
| 2026-05-06 16:51 | 28.83328 | -81.59637 | 7766 ft | 274 kts | 128° |
| 2026-05-06 16:52 | 28.82163 | -81.57914 | 7451 ft | 274 kts | 128° |
| 2026-05-06 16:52 | 28.81004 | -81.56201 | 7213 ft | 271 kts | 128° |
| 2026-05-06 16:52 | 28.79869 | -81.54527 | 7086 ft | 263 kts | 128° |
| 2026-05-06 16:52 | 28.79023 | -81.52730 | 6945 ft | 255 kts | 103° |
| 2026-05-06 16:53 | 28.78710 | -81.50768 | 6886 ft | 250 kts | 99° |
| 2026-05-06 16:53 | 28.78431 | -81.48799 | 6813 ft | 255 kts | 99° |
| 2026-05-06 16:53 | 28.78145 | -81.46792 | 6739 ft | 258 kts | 99° |
| 2026-05-06 16:53 | 28.77852 | -81.44760 | 6660 ft | 260 kts | 99° |
| 2026-05-06 16:54 | 28.77556 | -81.42721 | 6561 ft | 259 kts | 99° |
| 2026-05-06 16:54 | 28.77260 | -81.40702 | 6476 ft | 258 kts | 99° |
| 2026-05-06 16:54 | 28.76964 | -81.38686 | 6385 ft | 258 kts | 99° |
| 2026-05-06 16:54 | 28.76659 | -81.36670 | 6303 ft | 257 kts | 103° |
| 2026-05-06 16:55 | 28.76377 | -81.34677 | 6188 ft | 256 kts | 83° |
| 2026-05-06 16:55 | 28.77046 | -81.32853 | 6125 ft | 250 kts | 46° |
| 2026-05-06 16:55 | 28.78488 | -81.31876 | 6056 ft | 243 kts | 9° |
| 2026-05-06 16:55 | 28.80157 | -81.31793 | 6016 ft | 239 kts | 355° |
| 2026-05-06 16:56 | 28.81818 | -81.31961 | 5959 ft | 241 kts | 353° |
| 2026-05-06 16:56 | 28.83487 | -81.32163 | 5924 ft | 242 kts | 353° |
| 2026-05-06 16:56 | 28.85169 | -81.32210 | 5845 ft | 245 kts | 14° |
| 2026-05-06 16:56 | 28.86605 | -81.31228 | 5788 ft | 244 kts | 52° |
| 2026-05-06 16:57 | 28.87225 | -81.29459 | 5670 ft | 245 kts | 89° |
| 2026-05-06 16:57 | 28.86806 | -81.27658 | 5494 ft | 238 kts | 126° |
| 2026-05-06 16:57 | 28.85535 | -81.26568 | 5299 ft | 224 kts | 166° |
| 2026-05-06 16:57 | 28.84045 | -81.26660 | 5087 ft | 214 kts | 201° |
| 2026-05-06 16:58 | 28.82621 | -81.27086 | 4902 ft | 212 kts | 191° |
| 2026-05-06 16:58 | 28.81197 | -81.27439 | 4813 ft | 209 kts | 193° |
| 2026-05-06 16:58 | 28.79757 | -81.27822 | 4930 ft | 210 kts | 194° |
| 2026-05-06 16:58 | 28.78367 | -81.28195 | 4968 ft | 201 kts | 194° |
| 2026-05-06 16:59 | 28.77027 | -81.28555 | 5000 ft | 197 kts | 194° |
| 2026-05-06 16:59 | 28.75681 | -81.28745 | 4982 ft | 196 kts | 174° |
| 2026-05-06 16:59 | 28.74321 | -81.28636 | 4998 ft | 198 kts | 179° |
| 2026-05-06 16:59 | 28.72937 | -81.28584 | 4985 ft | 199 kts | 179° |
| 2026-05-06 17:00 | 28.71555 | -81.28539 | 4984 ft | 199 kts | 179° |
| 2026-05-06 17:00 | 28.70165 | -81.28493 | 4994 ft | 199 kts | 179° |
| 2026-05-06 17:00 | 28.68775 | -81.28446 | 4828 ft | 202 kts | 179° |
| 2026-05-06 17:00 | 28.67388 | -81.28403 | 4530 ft | 199 kts | 179° |
| 2026-05-06 17:01 | 28.66001 | -81.28367 | 4205 ft | 194 kts | 179° |
| 2026-05-06 17:01 | 28.64660 | -81.28341 | 3914 ft | 192 kts | 179° |
| 2026-05-06 17:01 | 28.63321 | -81.28325 | 3631 ft | 193 kts | 179° |
| 2026-05-06 17:01 | 28.61983 | -81.28332 | 3392 ft | 192 kts | 180° |
| 2026-05-06 17:02 | 28.60663 | -81.28398 | 3217 ft | 188 kts | 182° |
| 2026-05-06 17:02 | 28.59363 | -81.28454 | 2949 ft | 184 kts | 178° |
| 2026-05-06 17:02 | 28.58105 | -81.28433 | 2704 ft | 177 kts | 176° |
| 2026-05-06 17:02 | 28.56903 | -81.28386 | 2487 ft | 169 kts | 176° |
| 2026-05-06 17:03 | 28.55735 | -81.28354 | 2246 ft | 166 kts | 178° |
| 2026-05-06 17:03 | 28.54577 | -81.28331 | 2014 ft | 167 kts | 177° |
| 2026-05-06 17:03 | 28.53417 | -81.28317 | 1789 ft | 167 kts | 178° |
| 2026-05-06 17:03 | 28.52279 | -81.28321 | 1634 ft | 165 kts | 179° |
| 2026-05-06 17:04 | 28.51140 | -81.28334 | 1511 ft | 160 kts | 178° |
| 2026-05-06 17:04 | 28.50024 | -81.28335 | 1266 ft | 163 kts | 177° |
| 2026-05-06 17:04 | 28.48895 | -81.28303 | 1044 ft | 161 kts | 177° |
| 2026-05-06 17:04 | 28.47781 | -81.28298 | 824 ft | 161 kts | 179° |
| 2026-05-06 17:05 | 28.46666 | -81.28295 | 572 ft | 158 kts | 176° |
| 2026-05-06 17:05 | 28.45588 | -81.28271 | 400 ft | 155 kts | 176° |
| 2026-05-06 17:05 | 28.44473 | -81.28259 | 174 ft | 166 kts | 176° |
| 2026-05-06 17:05 | 28.43366 | -81.28247 | 101 ft | 141 kts | 180° |
| 2026-05-06 17:06 | 28.42603 | -81.28241 | 105 ft | 78 kts | 179° |
| 2026-05-06 17:06 | 28.42327 | -81.28270 | 106 ft | 27 kts | 212° |
| 2026-05-06 17:06 | 28.42311 | -81.28360 | 107 ft | 12 kts | 346° |
| 2026-05-06 17:06 | 28.42376 | -81.28363 | 107 ft | 6 kts | 359° |
| 2026-05-06 17:07 | 28.42417 | -81.28363 | 106 ft | 4 kts | 360° |
| 2026-05-06 17:07 | 28.42419 | -81.28363 | 106 ft | 0 kts | 360° |
| 2026-05-06 17:07 | 28.42426 | -81.28363 | 106 ft | 5 kts | 360° |
| 2026-05-06 17:07 | 28.42503 | -81.28394 | 106 ft | 15 kts | 296° |
| 2026-05-06 17:08 | 28.42475 | -81.28508 | 105 ft | 15 kts | 251° |
| 2026-05-06 17:08 | 28.42440 | -81.28621 | 102 ft | 15 kts | 251° |
| 2026-05-06 17:08 | 28.42407 | -81.28730 | 102 ft | 14 kts | 251° |
| 2026-05-06 17:08 | 28.42373 | -81.28839 | 107 ft | 16 kts | 251° |
| 2026-05-06 17:09 | 28.42332 | -81.28972 | 107 ft | 20 kts | 250° |
| 2026-05-06 17:09 | 28.42294 | -81.29124 | 107 ft | 20 kts | 262° |
| 2026-05-06 17:09 | 28.42284 | -81.29281 | 104 ft | 20 kts | 269° |
| 2026-05-06 17:09 | 28.42284 | -81.29438 | 102 ft | 20 kts | 271° |
| 2026-05-06 17:10 | 28.42283 | -81.29588 | 98 ft | 17 kts | 269° |
| 2026-05-06 17:10 | 28.42282 | -81.29692 | 99 ft | 12 kts | 270° |
| 2026-05-06 17:10 | 28.42283 | -81.29784 | 101 ft | 11 kts | 270° |
| 2026-05-06 17:10 | 28.42281 | -81.29871 | 103 ft | 11 kts | 269° |
| 2026-05-06 17:11 | 28.42280 | -81.29956 | 103 ft | 11 kts | 268° |
| 2026-05-06 17:11 | 28.42279 | -81.30051 | 102 ft | 14 kts | 270° |
| 2026-05-06 17:11 | 28.42279 | -81.30178 | 101 ft | 18 kts | 269° |
| 2026-05-06 17:11 | 28.42276 | -81.30332 | 100 ft | 21 kts | 269° |
| 2026-05-06 17:12 | 28.42267 | -81.30505 | 103 ft | 22 kts | 264° |
| 2026-05-06 17:12 | 28.42254 | -81.30685 | 103 ft | 23 kts | 266° |
| 2026-05-06 17:12 | 28.42241 | -81.30866 | 101 ft | 23 kts | 265° |
| 2026-05-06 17:12 | 28.42236 | -81.31024 | 96 ft | 20 kts | 273° |
| 2026-05-06 17:13 | 28.42254 | -81.31164 | 95 ft | 8 kts | 280° |
| 2026-05-06 17:13 | 28.42263 | -81.31221 | 96 ft | 7 kts | 279° |
| 2026-05-06 17:13 | 28.42284 | -81.31270 | 94 ft | 7 kts | 324° |
| 2026-05-06 17:13 | 28.42332 | -81.31279 | 95 ft | 7 kts | 357° |
| 2026-05-06 17:14 | 28.42379 | -81.31280 | 95 ft | 7 kts | 1° |
| 2026-05-06 17:14 | 28.42427 | -81.31292 | 95 ft | 8 kts | 320° |
| 2026-05-06 17:14 | 28.42479 | -81.31346 | 96 ft | 12 kts | 318° |
| 2026-05-06 17:14 | 28.42528 | -81.31403 | 100 ft | 8 kts | 307° |
| 2026-05-06 17:15 | 28.42573 | -81.31448 | 101 ft | 6 kts | 323° |
| 2026-05-06 17:15 | 28.42594 | -81.31466 | 101 ft | 2 kts | 323° |
| 2026-05-06 17:15 | 28.42595 | -81.31467 | 101 ft | 0 kts | 323° |